Estación de Peumo Norte
Ultimos registro cada 15 minutos 44
| N° | Estación | Fecha / Hora | Temperatura | Humedad | Lluvia | Velocidad | Dirección | Radiación | Presion |
| 44 | Peumo Norte | 09-05-2026 10:45 | 13,7 | 77,6 | 0 | 1 | 181 | 409,4 | 1002 |
| 43 | Peumo Norte | 09-05-2026 10:30 | 13,1 | 79,2 | 0 | 1 | 170 | 389,4 | 1002,2 |
| 42 | Peumo Norte | 09-05-2026 10:15 | 13 | 84,3 | 0 | 0,5 | 126 | 366,9 | 1002,4 |
| 41 | Peumo Norte | 09-05-2026 10:00 | 12,7 | 89,5 | 0 | 1 | 168 | 343,1 | 1002,5 |
| 40 | Peumo Norte | 09-05-2026 09:45 | 11,9 | 93,4 | 0 | 0,5 | 171 | 310,6 | 1002,5 |
| 39 | Peumo Norte | 09-05-2026 09:30 | 11,8 | 94,7 | 0 | 0 | 102 | 270,6 | 1002,7 |
| 38 | Peumo Norte | 09-05-2026 09:15 | 11,1 | 96,4 | 0 | 0 | 150 | 235,6 | 1002,7 |
| 37 | Peumo Norte | 09-05-2026 09:00 | 9,4 | 96,8 | 0 | 0 | 93 | 201,9 | 1002,9 |
| 36 | Peumo Norte | 09-05-2026 08:45 | 9,3 | 97,2 | 0 | 0 | 117 | 169,4 | 1003 |
| 35 | Peumo Norte | 09-05-2026 08:30 | 7,8 | 97,1 | 0 | 0 | 115 | 133,1 | 1002,8 |
| 34 | Peumo Norte | 09-05-2026 08:15 | 6,5 | 97,3 | 0 | 0 | 76 | 14,4 | 1003,2 |
| 33 | Peumo Norte | 09-05-2026 08:00 | 6,4 | 97,4 | 0 | 0 | 0 | 8,1 | 1003,3 |
| 32 | Peumo Norte | 09-05-2026 07:45 | 7,2 | 97 | 0 | 0 | 0 | 5,6 | 1003,4 |
| 31 | Peumo Norte | 09-05-2026 07:30 | 6,3 | 97 | 0 | 0 | 0 | 1,9 | 1003,4 |
| 30 | Peumo Norte | 09-05-2026 07:15 | 6,6 | 96,8 | 0 | 0 | 7 | 0,6 | 1003,4 |
| 29 | Peumo Norte | 09-05-2026 07:00 | 7,1 | 97,7 | 0 | 0 | 270 | 0,6 | 1003,2 |
| 28 | Peumo Norte | 09-05-2026 06:45 | 5,6 | 96,8 | 0 | 0 | 270 | 0,6 | 1003,2 |
| 27 | Peumo Norte | 09-05-2026 06:30 | 6,9 | 97,3 | 0 | 0 | 326 | 0,6 | 1003,4 |
| 26 | Peumo Norte | 09-05-2026 06:15 | 5,8 | 96,7 | 0 | 0 | 24 | 0,6 | 1003,2 |
| 25 | Peumo Norte | 09-05-2026 06:00 | 5,6 | 96,8 | 0 | 0 | 6 | 0,6 | 1003,1 |
| 24 | Peumo Norte | 09-05-2026 05:45 | 6,2 | 96,8 | 0 | 0 | 6 | 0,6 | 1003,2 |
| 23 | Peumo Norte | 09-05-2026 05:30 | 6,6 | 96,1 | 0 | 0 | 6 | 0,6 | 1003,2 |
| 22 | Peumo Norte | 09-05-2026 05:15 | 6,6 | 96,3 | 0 | 0 | 14 | 0,6 | 1003,2 |
| 21 | Peumo Norte | 09-05-2026 05:00 | 6,6 | 96,1 | 0 | 0 | 44 | 0,6 | 1003,2 |
| 20 | Peumo Norte | 09-05-2026 04:45 | 6,7 | 96,3 | 0 | 0 | 55 | 0,6 | 1003 |
| 19 | Peumo Norte | 09-05-2026 04:30 | 6,3 | 95,6 | 0 | 0 | 102 | 0,6 | 1003,2 |
| 18 | Peumo Norte | 09-05-2026 04:15 | 5,9 | 95,9 | 0 | 0 | 102 | 0,6 | 1003,3 |
| 17 | Peumo Norte | 09-05-2026 04:00 | 6,4 | 96,1 | 0 | 0 | 117 | 0,6 | 1003,4 |
| 16 | Peumo Norte | 09-05-2026 03:45 | 6,4 | 95,6 | 0 | 0 | 118 | 0,6 | 1003,3 |
| 15 | Peumo Norte | 09-05-2026 03:30 | 6,3 | 95,4 | 0 | 0 | 135 | 0,6 | 1003,5 |
| 14 | Peumo Norte | 09-05-2026 03:15 | 6,4 | 95,1 | 0 | 0 | 126 | 0,6 | 1003,4 |
| 13 | Peumo Norte | 09-05-2026 03:00 | 6,1 | 95,2 | 0 | 0 | 118 | 0,6 | 1003,5 |
| 12 | Peumo Norte | 09-05-2026 02:45 | 5,3 | 94,9 | 0 | 0 | 124 | 0,6 | 1003,6 |
| 11 | Peumo Norte | 09-05-2026 02:30 | 6 | 94,7 | 0 | 0 | 128 | 0,6 | 1003,8 |
| 10 | Peumo Norte | 09-05-2026 02:15 | 7,3 | 94,6 | 0 | 0 | 128 | 0,6 | 1003,8 |
| 9 | Peumo Norte | 09-05-2026 02:00 | 7,2 | 94,8 | 0 | 0 | 128 | 0,6 | 1003,9 |
| 8 | Peumo Norte | 09-05-2026 01:45 | 7,8 | 94,2 | 0 | 0 | 146 | 0,6 | 1003,8 |
| 7 | Peumo Norte | 09-05-2026 01:30 | 8,7 | 93,7 | 0 | 0 | 168 | 0,6 | 1003,7 |
| 6 | Peumo Norte | 09-05-2026 01:15 | 7,6 | 94,2 | 0 | 0 | 167 | 0,6 | 1003,7 |
| 5 | Peumo Norte | 09-05-2026 01:00 | 7 | 93,5 | 0 | 0 | 167 | 0,6 | 1003,9 |
| 4 | Peumo Norte | 09-05-2026 00:45 | 6,9 | 93,9 | 0 | 0 | 168 | 0,6 | 1003,7 |
| 3 | Peumo Norte | 09-05-2026 00:30 | 6,8 | 93 | 0 | 0 | 128 | 0,6 | 1003,6 |
| 2 | Peumo Norte | 09-05-2026 00:15 | 6,7 | 92,5 | 0 | 0 | 117 | 0,6 | 1003,8 |
| 1 | Peumo Norte | 09-05-2026 00:00 | 7 | 92,5 | 0 | 0 | 117 | 0,6 | 1004 |